Skip Navigation Links
NOAA logo - Click to go to the NOAA homepage
NOAA's National Weather Service
Alaska Aviation Weather Unit
  NWS logo - Click to go to the NWS homepage
Left Navbar Graphic     21 AKDT = 05 GMT

   
NOAA is celebrating 200 years of science, service, and stewardship. Visit the NOAA 200th celebration Web site to learn more.
USA.gov is the U.S. Government's official Web portal to all Federal, state and local government Web resources and services.
Facebook
NWS on Facebook

Important Change Regarding the AAWU Web Presence

 

Over the last several months, the AAWU has been working to navigate its webpages to a nationally supported server. Security, as well as other needs, have necessitated the change.  In the process, we have made an effort to enhance the functionality of our website, as well as some of our products. As of June 27, 2017, aawu.arh.noaa.gov will be discontinued. The new AAWU web address is weather.gov/aawu. It is now live and will run in-parallel with the old site until it is discontinued. Please send any feedback or questions regarding the new webpages to nws.ar.aawu.webauthors@noaa.gov.  Thank you for your patience during this time of transition.
AAWU Home :: Display TAF Add Bookmark
TAF PAHO 250521Z 2506/2606  VRB03KT P6SM SKC
     FM252100 25014G18KT P6SM SKC
     FM260500 24008KT P6SM SKC=

929 
FTAK31 PANC 250521
TAFACV
TAF

METAR PAHO 242353Z 24014G18KT 10SM CLR 17/07 A3012 RMK AO2 SLP199 T01670067 10172 20133 58012 $= METAR PAHO 250053Z 24011G17KT 10SM CLR 16/05 A3010 RMK AO2 SLP194 T01610050 $= METAR PAHO 250153Z 24013G19KT 10SM CLR 17/07 A3010 RMK AO2 SLP193 T01670067 $= METAR PAHO 250253Z 25011G16KT 10SM CLR 18/07 A3009 RMK AO2 SLP190 T01830067 56008 $= METAR PAHO 250353Z 25008KT 10SM CLR 18/07 A3009 RMK AO2 SLP188 T01780067 $= METAR PAHO 250453Z 20005KT 10SM CLR 16/08 A3008 RMK AO2 SLP185 T01560083 $=
 Alaska TAF Map

NOAA's National Weather Service
Alaska Aviation Weather Unit
6930 Sand Lake Road
Anchorage, AK 99502-1845
Disclaimer
Credits
Glossary
Privacy Policy
About Us
Career Opportunities
Contact AAWU Internet Services Site last modified: April, 17th 2012